Time;durP1;ratioP1;P1;durP2;ratioP2;P2;SDS_P1;SDS_P2;PMS_P1;PMS_P2;Temp;Humidity;BMP_temperature;BMP_pressure;BME280_temperature;BME280_humidity;BME280_pressure;Samples;Min_cycle;Max_cycle;Signal;HPM_P1;HPM_P2
2021/08/26 00:00:51;;;;;;;9.73;8.40;;;13.50;99.90;;;;;;6321263;22;20161;-94
2021/08/26 00:06:03;;;;;;;9.77;8.87;;;13.50;99.90;;;;;;6298740;22;20445;-95
2021/08/26 00:08:33;;;;;;;11.80;10.03;;;13.50;99.90;;;;;;6296923;22;20392;-93
2021/08/26 00:11:00;;;;;;;11.20;8.60;;;13.50;99.90;;;;;;6297003;22;20475;-94
2021/08/26 00:13:32;;;;;;;9.77;8.77;;;13.60;99.90;;;;;;6321898;22;20472;-96
2021/08/26 00:15:59;;;;;;;10.63;8.60;;;13.50;99.90;;;;;;6297353;22;20419;-94
2021/08/26 00:18:25;;;;;;;10.33;8.50;;;13.60;99.90;;;;;;6325046;22;20399;-94
2021/08/26 00:20:57;;;;;;;9.83;8.40;;;13.60;99.90;;;;;;6323663;22;20400;-95
2021/08/26 00:23:23;;;;;;;9.67;8.67;;;13.60;99.90;;;;;;6325237;22;20165;-95
2021/08/26 00:25:50;;;;;;;9.47;8.50;;;13.60;99.90;;;;;;6324753;22;20938;-93
2021/08/26 00:28:17;;;;;;;9.97;9.07;;;13.50;99.90;;;;;;6325321;22;20816;-95
2021/08/26 00:30:43;;;;;;;10.73;9.63;;;13.50;99.90;;;;;;6323546;22;20392;-95
2021/08/26 00:33:10;;;;;;;10.00;9.00;;;13.50;99.90;;;;;;6300424;22;20930;-95
2021/08/26 00:35:36;;;;;;;9.50;8.47;;;13.50;99.90;;;;;;6323954;22;20420;-94
2021/08/26 00:38:02;;;;;;;9.90;8.90;;;13.50;99.90;;;;;;6323833;22;20188;-94
2021/08/26 00:40:30;;;;;;;10.53;9.10;;;13.30;99.90;;;;;;6299301;22;20773;-95
2021/08/26 00:43:13;;;;;;;9.70;8.70;;;13.30;99.90;;;;;;6301482;22;20165;-95
2021/08/26 00:45:40;;;;;;;10.80;9.57;;;13.20;99.90;;;;;;6324635;22;20408;-94
2021/08/26 00:48:16;;;;;;;10.43;9.17;;;13.30;99.90;;;;;;6324925;22;20457;-94
2021/08/26 00:50:45;;;;;;;10.83;8.83;;;13.20;99.90;;;;;;6290733;22;20481;-94
2021/08/26 00:53:11;;;;;;;10.73;9.67;;;13.20;99.90;;;;;;6324001;22;20444;-95
2021/08/26 00:55:41;;;;;;;11.63;10.47;;;13.20;99.90;;;;;;6324856;22;20162;-96
2021/08/26 00:58:08;;;;;;;10.80;9.70;;;13.20;99.90;;;;;;6300452;22;20564;-95
2021/08/26 01:00:34;;;;;;;10.10;9.20;;;13.10;99.90;;;;;;6324347;22;20419;-96
2021/08/26 01:03:09;;;;;;;10.13;9.10;;;13.10;99.90;;;;;;6324785;22;20408;-95
2021/08/26 01:05:52;;;;;;;9.90;8.90;;;13.10;99.90;;;;;;6299986;22;20403;-95
2021/08/26 01:08:33;;;;;;;9.20;8.30;;;13.10;99.90;;;;;;6324107;22;20395;-95
2021/08/26 01:11:01;;;;;;;10.80;9.00;;;13.00;99.90;;;;;;6297447;22;20394;-95
2021/08/26 01:13:40;;;;;;;10.30;9.30;;;13.00;99.90;;;;;;6324320;22;20396;-94
2021/08/26 01:16:10;;;;;;;9.87;8.97;;;13.00;99.90;;;;;;6323957;22;20424;-93
2021/08/26 01:18:42;;;;;;;11.13;8.97;;;13.00;99.90;;;;;;6321633;22;20388;-89
2021/08/26 01:21:20;;;;;;;10.50;9.40;;;13.00;99.90;;;;;;6297244;22;20462;-90
2021/08/26 01:24:02;;;;;;;10.23;9.27;;;12.90;99.90;;;;;;6322482;22;20408;-90
2021/08/26 01:26:34;;;;;;;11.20;10.00;;;12.90;99.90;;;;;;6296291;22;20552;-90
2021/08/26 01:29:02;;;;;;;11.73;9.47;;;12.90;99.90;;;;;;6296551;22;20384;-89
2021/08/26 01:31:29;;;;;;;11.47;10.30;;;12.80;99.90;;;;;;6322163;22;20439;-90
2021/08/26 01:33:55;;;;;;;10.97;9.77;;;12.70;99.90;;;;;;6296138;22;20410;-90
2021/08/26 01:36:37;;;;;;;11.80;9.33;;;12.70;99.90;;;;;;6321410;22;20476;-91
2021/08/26 01:39:12;;;;;;;12.57;8.77;;;12.70;99.90;;;;;;6322032;22;20411;-92
2021/08/26 01:41:51;;;;;;;10.17;9.03;;;12.70;99.90;;;;;;6321749;22;20383;-91
2021/08/26 01:44:28;;;;;;;12.83;9.40;;;12.70;99.90;;;;;;6296013;22;20532;-91
2021/08/26 01:47:06;;;;;;;10.70;9.60;;;12.70;99.90;;;;;;6298954;22;20706;-90
2021/08/26 01:49:43;;;;;;;9.87;8.87;;;12.60;99.90;;;;;;6296628;22;20461;-89
2021/08/26 01:55:00;;;;;;;12.50;10.23;;;12.50;99.90;;;;;;6320933;22;20420;-91
2021/08/26 01:57:30;;;;;;;11.90;10.53;;;12.50;99.90;;;;;;6296042;22;21103;-92
2021/08/26 02:00:04;;;;;;;11.10;9.83;;;12.50;99.90;;;;;;6296294;22;20427;-92
2021/08/26 02:02:29;;;;;;;10.20;9.17;;;12.50;99.90;;;;;;6321475;22;20395;-92
2021/08/26 02:04:55;;;;;;;10.90;9.80;;;12.50;99.90;;;;;;6321738;22;20842;-91
2021/08/26 02:07:30;;;;;;;10.97;9.87;;;12.40;99.90;;;;;;6320961;22;20544;-91
2021/08/26 02:09:56;;;;;;;9.67;8.77;;;12.30;99.90;;;;;;6322049;22;20161;-91
2021/08/26 02:12:21;;;;;;;10.97;9.87;;;12.30;99.90;;;;;;6321118;22;20508;-91
2021/08/26 02:14:49;;;;;;;10.67;9.33;;;12.40;99.90;;;;;;6294160;22;20172;-91
2021/08/26 02:17:15;;;;;;;11.87;10.77;;;12.30;99.90;;;;;;6321522;22;20491;-91
2021/08/26 02:19:41;;;;;;;13.40;11.17;;;12.30;99.90;;;;;;6294995;22;20409;-90
2021/08/26 02:22:07;;;;;;;10.40;9.30;;;12.30;99.90;;;;;;6295055;22;20165;-91
2021/08/26 02:24:33;;;;;;;10.93;9.40;;;12.20;99.90;;;;;;6320883;22;20800;-91
2021/08/26 02:26:59;;;;;;;11.23;10.13;;;12.20;99.90;;;;;;6321403;22;20420;-91
2021/08/26 02:29:27;;;;;;;11.30;9.77;;;12.20;99.90;;;;;;6296031;22;20190;-91
2021/08/26 02:31:52;;;;;;;10.80;9.77;;;12.20;99.90;;;;;;6295182;22;20494;-91
2021/08/26 02:34:18;;;;;;;11.50;10.30;;;12.20;99.90;;;;;;6318737;22;20855;-91
2021/08/26 02:36:44;;;;;;;10.70;9.40;;;12.10;99.90;;;;;;6294223;22;20244;-90
2021/08/26 02:39:10;;;;;;;11.00;10.00;;;12.10;99.90;;;;;;6296710;22;20615;-91
2021/08/26 02:41:36;;;;;;;11.17;10.07;;;12.00;99.90;;;;;;6295735;22;20486;-90
2021/08/26 02:44:02;;;;;;;11.20;10.00;;;11.90;99.90;;;;;;6295035;22;20187;-91
2021/08/26 02:46:28;;;;;;;13.60;10.27;;;11.90;99.90;;;;;;6321641;22;20400;-90
2021/08/26 02:48:54;;;;;;;11.07;10.07;;;11.90;99.90;;;;;;6294803;22;20388;-90
2021/08/26 02:51:20;;;;;;;10.73;9.63;;;11.90;99.90;;;;;;6294538;22;20426;-91
2021/08/26 02:53:46;;;;;;;11.30;10.10;;;12.00;99.90;;;;;;6320722;22;20854;-90
2021/08/26 02:56:11;;;;;;;11.10;10.00;;;11.90;99.90;;;;;;6295530;22;20518;-90
2021/08/26 02:58:37;;;;;;;12.30;10.77;;;11.90;99.90;;;;;;6296508;22;20161;-90
2021/08/26 03:01:03;;;;;;;10.90;9.80;;;11.90;99.90;;;;;;6294447;22;20153;-91
2021/08/26 03:03:29;;;;;;;10.67;9.57;;;11.90;99.90;;;;;;6318994;22;20621;-91
2021/08/26 03:05:56;;;;;;;12.50;10.93;;;11.80;99.90;;;;;;6321359;22;20214;-91
2021/08/26 03:08:21;;;;;;;14.97;10.73;;;11.80;99.90;;;;;;6295119;22;20240;-90
2021/08/26 03:10:47;;;;;;;12.23;10.93;;;11.80;99.90;;;;;;6293214;22;20416;-91
2021/08/26 03:13:13;;;;;;;12.77;10.80;;;11.90;99.90;;;;;;6294609;22;20203;-91
2021/08/26 03:15:38;;;;;;;11.43;10.27;;;12.00;99.90;;;;;;6295127;22;20177;-91
2021/08/26 03:18:13;;;;;;;12.20;11.00;;;11.90;99.90;;;;;;6295898;22;20424;-91
2021/08/26 03:20:40;;;;;;;12.23;10.40;;;12.00;99.90;;;;;;6294994;22;20194;-90
2021/08/26 03:23:06;;;;;;;10.60;9.50;;;12.00;99.90;;;;;;6295509;22;20414;-91
2021/08/26 03:25:35;;;;;;;10.23;9.10;;;12.10;99.90;;;;;;6320821;22;20742;-90
2021/08/26 03:28:01;;;;;;;12.17;10.90;;;12.10;99.90;;;;;;6322311;22;21191;-91
2021/08/26 03:30:27;;;;;;;12.27;10.97;;;12.10;99.90;;;;;;6295918;22;20388;-91
2021/08/26 03:32:53;;;;;;;11.70;9.93;;;12.10;99.90;;;;;;6294999;22;20938;-91
2021/08/26 03:35:20;;;;;;;12.10;10.80;;;12.00;99.90;;;;;;6320892;22;20169;-91
2021/08/26 03:37:45;;;;;;;12.93;11.70;;;12.10;99.90;;;;;;6295325;22;20172;-90
2021/08/26 03:40:13;;;;;;;12.70;10.60;;;12.00;99.90;;;;;;6296395;22;20474;-91
2021/08/26 03:42:39;;;;;;;11.57;10.23;;;12.10;99.90;;;;;;6294827;22;20535;-91
2021/08/26 03:45:07;;;;;;;11.23;10.10;;;12.00;99.90;;;;;;6297601;22;20392;-91
2021/08/26 03:47:35;;;;;;;11.50;10.37;;;12.10;99.90;;;;;;6323134;22;20165;-90
2021/08/26 03:50:01;;;;;;;11.00;9.90;;;12.10;99.90;;;;;;6297404;22;20394;-91
2021/08/26 03:52:27;;;;;;;12.90;10.30;;;12.10;99.90;;;;;;6322091;22;20463;-90
2021/08/26 03:55:05;;;;;;;11.60;10.40;;;12.00;99.90;;;;;;6298356;22;20223;-91
2021/08/26 03:57:31;;;;;;;12.03;10.33;;;12.00;99.90;;;;;;6297436;22;20210;-91
2021/08/26 03:59:59;;;;;;;11.83;9.83;;;12.00;99.90;;;;;;6296853;22;20479;-92
2021/08/26 04:02:25;;;;;;;11.70;10.40;;;12.00;99.90;;;;;;6322978;22;20162;-91
2021/08/26 04:04:51;;;;;;;11.97;10.77;;;11.90;99.90;;;;;;6298192;22;21199;-91
2021/08/26 04:07:18;;;;;;;11.43;10.33;;;11.90;99.90;;;;;;6296804;22;20166;-90
2021/08/26 04:09:45;;;;;;;11.30;10.10;;;12.00;99.90;;;;;;6295926;22;20577;-92
2021/08/26 04:12:14;;;;;;;11.20;10.00;;;12.00;99.90;;;;;;6297866;22;20439;-92
2021/08/26 04:14:40;;;;;;;10.93;9.43;;;11.90;99.90;;;;;;6296570;22;20404;-92
2021/08/26 04:17:06;;;;;;;12.30;11.07;;;11.90;99.90;;;;;;6322496;22;20446;-91
2021/08/26 04:19:31;;;;;;;11.40;9.23;;;11.90;99.90;;;;;;6296012;22;20384;-91
2021/08/26 04:21:57;;;;;;;11.37;9.73;;;11.90;99.90;;;;;;6322914;22;20300;-91
2021/08/26 04:24:24;;;;;;;15.17;11.30;;;11.90;99.90;;;;;;6322900;22;20615;-91
2021/08/26 04:26:59;;;;;;;11.17;9.97;;;11.90;99.90;;;;;;6296978;22;20169;-92
2021/08/26 04:29:24;;;;;;;10.67;9.60;;;11.90;99.90;;;;;;6322070;22;20391;-92
2021/08/26 04:31:50;;;;;;;11.03;9.60;;;11.90;99.90;;;;;;6322641;22;20443;-91
2021/08/26 04:34:16;;;;;;;11.53;10.33;;;11.90;99.90;;;;;;6322828;22;20481;-90
2021/08/26 04:36:41;;;;;;;11.33;9.90;;;11.90;99.90;;;;;;6296206;22;20698;-91
2021/08/26 04:39:07;;;;;;;10.47;9.43;;;11.90;99.90;;;;;;6322608;22;20256;-90
2021/08/26 04:41:33;;;;;;;10.50;9.43;;;12.00;99.90;;;;;;6323116;22;20958;-92
2021/08/26 04:43:58;;;;;;;11.73;9.63;;;12.00;99.90;;;;;;6323006;22;20161;-91
2021/08/26 04:46:24;;;;;;;12.13;9.97;;;12.00;99.90;;;;;;6321907;22;20195;-93
2021/08/26 04:48:50;;;;;;;10.47;9.37;;;12.10;99.90;;;;;;6296336;22;20248;-93
2021/08/26 04:51:19;;;;;;;10.80;9.70;;;12.20;99.90;;;;;;6298838;22;20154;-93
2021/08/26 04:53:58;;;;;;;10.37;9.10;;;12.10;99.90;;;;;;6299527;22;20403;-92
2021/08/26 04:56:45;;;;;;;12.13;8.50;;;12.10;99.90;;;;;;6307431;22;21099;-92
2021/08/26 04:59:12;;;;;;;10.67;9.60;;;12.10;99.90;;;;;;6297462;22;20897;-93
2021/08/26 05:01:41;;;;;;;9.50;8.50;;;12.10;99.90;;;;;;6272599;22;20404;-92
2021/08/26 05:04:08;;;;;;;11.30;9.73;;;12.10;99.90;;;;;;6324104;22;20396;-93
2021/08/26 05:06:35;;;;;;;12.70;11.03;;;12.10;99.90;;;;;;6297225;22;20422;-92
2021/08/26 05:09:01;;;;;;;11.57;10.03;;;12.20;99.90;;;;;;6298324;22;20758;-92
2021/08/26 05:11:26;;;;;;;9.17;8.30;;;12.20;99.90;;;;;;6298104;22;20646;-93
2021/08/26 05:13:53;;;;;;;10.87;9.83;;;12.30;99.90;;;;;;6324065;22;20242;-92
2021/08/26 05:16:19;;;;;;;10.73;9.50;;;12.20;99.90;;;;;;6300436;22;20180;-94
2021/08/26 05:18:49;;;;;;;14.20;10.50;;;12.30;99.90;;;;;;6300828;22;20707;-92
2021/08/26 05:21:17;;;;;;;10.50;9.40;;;12.30;99.90;;;;;;6294508;22;20185;-94
2021/08/26 05:23:44;;;;;;;10.50;9.40;;;12.40;99.90;;;;;;6324334;22;20919;-93
2021/08/26 05:26:18;;;;;;;11.63;10.47;;;12.50;99.90;;;;;;6298398;22;20157;-92
2021/08/26 05:28:51;;;;;;;11.33;9.70;;;12.50;99.90;;;;;;6301402;22;20376;-93
2021/08/26 05:31:17;;;;;;;12.40;9.40;;;12.50;99.90;;;;;;6324233;22;20388;-94
2021/08/26 05:33:44;;;;;;;11.40;10.20;;;12.50;99.90;;;;;;6324926;22;20419;-95
2021/08/26 05:36:10;;;;;;;11.50;10.07;;;12.60;99.90;;;;;;6324518;22;20157;-92
2021/08/26 05:38:37;;;;;;;11.47;9.67;;;12.60;99.90;;;;;;6298852;22;20384;-93
2021/08/26 05:41:03;;;;;;;10.10;9.10;;;12.60;99.90;;;;;;6324583;22;20158;-93
2021/08/26 05:43:30;;;;;;;12.07;10.40;;;12.60;99.90;;;;;;6298440;22;20726;-94
2021/08/26 05:45:58;;;;;;;13.57;9.27;;;12.60;99.90;;;;;;6298794;22;20404;-93
2021/08/26 05:48:25;;;;;;;12.93;9.60;;;12.70;99.90;;;;;;6324786;22;20399;-93
2021/08/26 05:50:52;;;;;;;12.03;10.20;;;12.70;99.90;;;;;;6327087;22;20438;-94
2021/08/26 05:53:17;;;;;;;10.30;8.70;;;12.80;99.90;;;;;;6300489;22;20443;-96
2021/08/26 05:55:47;;;;;;;10.60;9.50;;;12.90;99.90;;;;;;6326994;22;20490;-95
2021/08/26 05:58:20;;;;;;;13.00;9.33;;;12.90;99.90;;;;;;6300690;22;20191;-96
2021/08/26 06:00:48;;;;;;;14.23;9.33;;;12.90;99.90;;;;;;6299910;22;20575;-95
2021/08/26 06:03:16;;;;;;;12.37;9.07;;;13.00;99.90;;;;;;6300794;22;20410;-95
2021/08/26 06:05:44;;;;;;;9.67;8.60;;;13.10;99.90;;;;;;6310535;22;20418;-95
2021/08/26 06:08:37;;;;;;;9.30;8.20;;;13.20;99.90;;;;;;6302329;22;20732;-96
2021/08/26 06:11:03;;;;;;;10.13;9.20;;;13.30;99.90;;;;;;6303584;22;20710;-93
2021/08/26 06:13:30;;;;;;;10.33;9.33;;;13.20;99.90;;;;;;6301492;22;20523;-96
2021/08/26 06:16:04;;;;;;;10.50;9.37;;;13.20;99.90;;;;;;6302323;22;20479;-94
2021/08/26 06:18:40;;;;;;;10.30;9.30;;;13.10;99.90;;;;;;6324764;22;20418;-96
2021/08/26 06:21:08;;;;;;;9.80;8.80;;;13.20;99.90;;;;;;6312058;22;21217;-94
2021/08/26 06:23:47;;;;;;;12.43;9.43;;;13.30;99.90;;;;;;6242120;22;20400;-95
2021/08/26 06:26:14;;;;;;;12.63;9.70;;;13.30;99.90;;;;;;6274162;22;20391;-94
2021/08/26 06:28:46;;;;;;;15.50;9.67;;;13.30;99.90;;;;;;6270809;22;20715;-93
2021/08/26 06:31:13;;;;;;;9.80;8.80;;;13.40;99.90;;;;;;6267487;22;20744;-95
2021/08/26 06:33:39;;;;;;;10.63;9.10;;;13.40;99.90;;;;;;6266650;22;20810;-92
2021/08/26 06:36:13;;;;;;;10.37;9.37;;;13.40;99.90;;;;;;6270955;22;20424;-95
2021/08/26 06:38:39;;;;;;;10.40;9.00;;;13.40;99.90;;;;;;6276296;22;20157;-90
2021/08/26 06:41:04;;;;;;;11.73;8.47;;;13.40;99.90;;;;;;6267860;22;20438;-90
2021/08/26 06:43:30;;;;;;;9.20;8.20;;;13.50;99.90;;;;;;6268018;22;20170;-90
2021/08/26 06:45:56;;;;;;;9.40;8.50;;;13.60;99.90;;;;;;6267996;22;20150;-90
2021/08/26 06:48:22;;;;;;;9.90;8.23;;;13.70;99.90;;;;;;6266980;22;20169;-89
2021/08/26 06:50:48;;;;;;;9.40;8.50;;;13.70;99.90;;;;;;6266812;22;20385;-89
2021/08/26 06:53:13;;;;;;;10.27;9.17;;;13.60;99.90;;;;;;6268743;22;20235;-91
2021/08/26 06:55:39;;;;;;;9.40;8.50;;;13.70;99.90;;;;;;6267497;22;20158;-87
2021/08/26 06:58:06;;;;;;;9.40;8.40;;;13.80;99.90;;;;;;6265851;22;20250;-87
2021/08/26 07:00:32;;;;;;;11.40;9.23;;;13.60;99.90;;;;;;6268126;22;20517;-86
2021/08/26 07:02:58;;;;;;;11.50;10.03;;;13.70;99.90;;;;;;6267419;22;20408;-86
2021/08/26 07:05:24;;;;;;;10.60;9.53;;;13.70;99.90;;;;;;6266004;22;20377;-86
2021/08/26 07:07:50;;;;;;;10.23;9.23;;;13.70;99.90;;;;;;6267544;22;20779;-87
2021/08/26 07:10:16;;;;;;;10.23;9.17;;;13.60;99.90;;;;;;6266221;22;20199;-85
2021/08/26 07:12:42;;;;;;;10.93;9.83;;;13.60;99.90;;;;;;6267404;22;20186;-85
2021/08/26 07:15:08;;;;;;;10.27;9.27;;;13.60;99.90;;;;;;6265580;22;20419;-86
2021/08/26 07:17:38;;;;;;;10.17;9.17;;;13.50;99.90;;;;;;6265781;22;20162;-86
2021/08/26 07:20:08;;;;;;;10.10;9.10;;;13.60;99.90;;;;;;6265250;22;20397;-87
2021/08/26 07:22:34;;;;;;;15.43;10.00;;;13.50;99.90;;;;;;6235735;22;20491;-85
2021/08/26 07:25:05;;;;;;;12.00;9.60;;;13.50;99.90;;;;;;6265058;22;20381;-86
2021/08/26 07:27:31;;;;;;;11.30;9.80;;;13.60;99.90;;;;;;6265905;22;20423;-87
2021/08/26 07:29:58;;;;;;;10.43;9.33;;;13.60;99.90;;;;;;6266411;22;20388;-87
2021/08/26 07:32:24;;;;;;;11.27;9.03;;;13.50;99.90;;;;;;6264772;22;20989;-86
2021/08/26 07:34:50;;;;;;;12.27;10.73;;;13.50;99.90;;;;;;6239236;22;20412;-85
2021/08/26 07:37:16;;;;;;;10.97;9.37;;;13.50;99.90;;;;;;6264701;22;20401;-85
2021/08/26 07:39:42;;;;;;;11.00;9.90;;;13.60;99.90;;;;;;6265124;22;20383;-86
2021/08/26 07:42:08;;;;;;;9.90;8.77;;;13.50;99.90;;;;;;6264394;22;20162;-86
2021/08/26 07:44:33;;;;;;;11.63;10.07;;;13.60;99.90;;;;;;6265005;22;20881;-86
2021/08/26 07:46:59;;;;;;;12.50;9.33;;;13.70;99.90;;;;;;6264182;22;20154;-86
2021/08/26 07:49:25;;;;;;;15.03;10.40;;;13.80;99.90;;;;;;6262627;22;20613;-87
2021/08/26 07:51:50;;;;;;;11.77;10.27;;;13.70;99.90;;;;;;6264587;22;20186;-86
2021/08/26 07:54:16;;;;;;;12.90;10.00;;;13.80;99.90;;;;;;6264482;22;20601;-88
2021/08/26 07:56:42;;;;;;;11.10;10.00;;;13.80;99.90;;;;;;6264398;22;20166;-87
2021/08/26 07:59:08;;;;;;;11.40;10.20;;;13.80;99.90;;;;;;6264302;22;20381;-89
2021/08/26 08:01:34;;;;;;;10.97;9.87;;;14.00;99.90;;;;;;6264964;22;20732;-88
2021/08/26 08:03:59;;;;;;;10.50;9.37;;;14.00;99.90;;;;;;6264739;22;20233;-87
2021/08/26 08:06:25;;;;;;;10.77;9.67;;;14.10;99.90;;;;;;6265555;22;20560;-86
2021/08/26 08:08:51;;;;;;;10.43;9.53;;;14.30;99.90;;;;;;6265002;22;20167;-86
2021/08/26 08:11:17;;;;;;;11.80;9.50;;;14.40;99.90;;;;;;6265042;22;20505;-87
2021/08/26 08:13:43;;;;;;;10.63;9.57;;;14.40;99.90;;;;;;6264925;22;20261;-86
2021/08/26 08:16:10;;;;;;;10.83;9.50;;;14.40;99.90;;;;;;6265205;22;20407;-86
2021/08/26 08:18:35;;;;;;;10.63;9.30;;;14.30;99.90;;;;;;6265623;22;20509;-86
2021/08/26 08:21:02;;;;;;;12.07;9.07;;;14.30;99.90;;;;;;6264014;22;20404;-87
2021/08/26 08:23:30;;;;;;;10.07;8.97;;;14.30;99.90;;;;;;6265609;22;20170;-87
2021/08/26 08:25:56;;;;;;;14.07;10.13;;;14.30;99.90;;;;;;6265579;22;20389;-86
2021/08/26 08:28:24;;;;;;;11.20;10.10;;;14.20;99.90;;;;;;6265253;22;20401;-86
2021/08/26 08:30:50;;;;;;;12.07;10.43;;;14.20;99.90;;;;;;6264377;22;20396;-87
2021/08/26 08:33:17;;;;;;;11.97;9.80;;;14.20;99.90;;;;;;6265710;22;20198;-87
2021/08/26 08:35:42;;;;;;;12.03;10.57;;;14.40;99.90;;;;;;6267019;22;20516;-86
2021/08/26 08:38:08;;;;;;;12.70;9.87;;;14.50;99.90;;;;;;6266372;22;20588;-87
2021/08/26 08:40:40;;;;;;;10.90;9.87;;;14.50;99.90;;;;;;6265613;22;20182;-87
2021/08/26 08:43:06;;;;;;;10.77;9.77;;;14.50;99.90;;;;;;6266852;22;20416;-87
2021/08/26 08:45:32;;;;;;;11.47;10.37;;;14.60;99.90;;;;;;6267720;22;20866;-87
2021/08/26 08:48:03;;;;;;;10.80;9.70;;;14.70;99.90;;;;;;6265730;22;20193;-87
2021/08/26 08:50:29;;;;;;;10.33;9.30;;;14.80;99.90;;;;;;6265942;22;20166;-86
2021/08/26 08:52:56;;;;;;;10.07;9.03;;;14.90;99.90;;;;;;6266045;22;20437;-87
2021/08/26 08:55:27;;;;;;;11.80;9.20;;;15.00;99.90;;;;;;6267255;22;20518;-86
2021/08/26 08:58:12;;;;;;;10.27;9.33;;;15.10;99.90;;;;;;6240700;22;20401;-86
2021/08/26 09:00:40;;;;;;;9.97;9.00;;;15.20;99.90;;;;;;6267596;22;20499;-86
2021/08/26 09:03:06;;;;;;;10.63;9.53;;;15.20;99.90;;;;;;6267076;22;20405;-87
2021/08/26 09:05:54;;;;;;;11.23;10.03;;;15.20;99.90;;;;;;6266255;22;20381;-87
2021/08/26 09:08:22;;;;;;;10.50;8.70;;;15.30;99.90;;;;;;6266483;22;20254;-86
2021/08/26 09:10:50;;;;;;;11.77;9.17;;;15.30;99.90;;;;;;6266391;22;20390;-87
2021/08/26 09:13:15;;;;;;;11.00;9.93;;;15.40;99.90;;;;;;6266480;22;20876;-86
2021/08/26 09:15:46;;;;;;;10.23;9.23;;;15.40;99.90;;;;;;6264853;22;20397;-87
2021/08/26 09:18:15;;;;;;;11.00;9.60;;;15.30;99.90;;;;;;6258330;22;20721;-86
2021/08/26 09:20:58;;;;;;;12.23;11.03;;;15.30;99.90;;;;;;6265449;22;20416;-87
2021/08/26 09:23:30;;;;;;;15.57;11.73;;;15.40;99.90;;;;;;6265430;22;20396;-87
2021/08/26 09:26:20;;;;;;;14.70;12.73;;;15.50;99.90;;;;;;6266660;22;20408;-88
2021/08/26 09:28:47;;;;;;;12.97;11.67;;;15.50;99.90;;;;;;6217796;22;20416;-88
2021/08/26 09:31:24;;;;;;;17.10;13.70;;;15.30;99.90;;;;;;6266651;22;20408;-89
2021/08/26 09:34:03;;;;;;;17.80;16.03;;;15.20;99.90;;;;;;6265720;22;20430;-88
2021/08/26 09:36:37;;;;;;;18.03;16.33;;;15.20;99.90;;;;;;6239869;22;20431;-87
2021/08/26 09:39:03;;;;;;;19.80;16.80;;;15.10;99.90;;;;;;6264708;22;20396;-89
2021/08/26 09:41:46;;;;;;;19.10;16.90;;;15.20;99.90;;;;;;6239440;22;20381;-88
2021/08/26 09:44:16;;;;;;;17.93;16.03;;;15.20;99.90;;;;;;6241643;22;20200;-89
2021/08/26 09:46:43;;;;;;;22.53;20.33;;;15.10;99.90;;;;;;6237587;22;20397;-87
2021/08/26 09:49:20;;;;;;;20.13;18.03;;;14.90;99.90;;;;;;6266399;22;20392;-88
2021/08/26 09:52:01;;;;;;;20.63;18.63;;;14.90;99.90;;;;;;6265623;22;20531;-87
2021/08/26 09:54:30;;;;;;;18.90;17.00;;;14.90;99.90;;;;;;6265641;22;20393;-88
2021/08/26 09:56:57;;;;;;;22.97;20.10;;;14.90;99.90;;;;;;6237695;22;20397;-88
2021/08/26 09:59:43;;;;;;;21.03;18.70;;;14.90;99.90;;;;;;6266089;22;20403;-88
2021/08/26 10:02:10;;;;;;;23.97;21.17;;;14.90;99.90;;;;;;6240520;22;20444;-87
2021/08/26 10:04:39;;;;;;;24.77;22.27;;;14.70;99.90;;;;;;6267408;22;20481;-87
2021/08/26 10:07:05;;;;;;;27.67;24.73;;;14.60;99.90;;;;;;6268413;22;20744;-88
2021/08/26 10:09:32;;;;;;;25.40;22.80;;;14.50;99.90;;;;;;6267100;22;20385;-88
2021/08/26 10:11:58;;;;;;;30.07;23.07;;;14.40;99.90;;;;;;6265924;22;20475;-88
2021/08/26 10:14:25;;;;;;;27.37;24.43;;;14.30;99.90;;;;;;6265574;22;20968;-92
2021/08/26 10:16:51;;;;;;;30.73;26.73;;;14.40;99.90;;;;;;6265890;22;20170;-91
2021/08/26 10:19:17;;;;;;;26.33;23.53;;;14.60;99.90;;;;;;6267296;22;20393;-90
2021/08/26 10:21:44;;;;;;;27.30;24.70;;;14.50;99.90;;;;;;6266648;22;20445;-90
2021/08/26 10:24:12;;;;;;;25.77;23.27;;;14.40;99.90;;;;;;6260442;22;20162;-90
2021/08/26 10:26:42;;;;;;;26.63;23.80;;;14.40;99.90;;;;;;6266739;22;20401;-90
2021/08/26 10:29:09;;;;;;;23.20;20.83;;;14.50;99.90;;;;;;6266957;22;20887;-90
2021/08/26 10:31:36;;;;;;;25.67;22.97;;;14.40;99.90;;;;;;6265263;22;20694;-89
2021/08/26 10:34:22;;;;;;;22.83;20.83;;;14.30;99.90;;;;;;6266217;22;20424;-90
2021/08/26 10:36:56;;;;;;;17.90;16.20;;;14.30;99.90;;;;;;6265679;22;20887;-90
2021/08/26 10:39:27;;;;;;;17.93;16.30;;;14.40;99.90;;;;;;6238393;22;20400;-89
2021/08/26 10:41:54;;;;;;;18.63;16.93;;;14.40;99.90;;;;;;6238949;22;20444;-89
2021/08/26 10:44:20;;;;;;;15.40;14.00;;;14.50;99.90;;;;;;6266909;22;20479;-89
2021/08/26 10:46:54;;;;;;;14.03;12.57;;;14.50;99.90;;;;;;6266460;22;20864;-90
2021/08/26 10:49:22;;;;;;;10.03;9.03;;;14.60;99.90;;;;;;6264418;22;20932;-89
2021/08/26 10:51:50;;;;;;;7.40;6.80;;;14.40;99.90;;;;;;6265999;22;20397;-89
2021/08/26 10:54:37;;;;;;;8.03;7.23;;;14.40;99.90;;;;;;6264425;22;20875;-90
2021/08/26 10:57:39;;;;;;;7.73;7.03;;;14.20;99.90;;;;;;6266143;22;20458;-90
2021/08/26 11:00:39;;;;;;;7.67;6.97;;;14.30;99.90;;;;;;6112573;23;20860;-90
2021/08/26 11:03:04;;;;;;;6.87;6.20;;;14.30;99.90;;;;;;6239494;22;20447;-89
2021/08/26 11:05:35;;;;;;;7.13;6.43;;;14.50;99.90;;;;;;6265272;22;20396;-89
2021/08/26 11:08:20;;;;;;;5.97;5.43;;;14.60;99.90;;;;;;6265044;22;20174;-90
2021/08/26 11:10:49;;;;;;;4.70;4.40;;;14.80;99.90;;;;;;6264463;22;20700;-87
2021/08/26 11:13:35;;;;;;;4.37;3.97;;;14.90;99.90;;;;;;6264801;22;20401;-93
2021/08/26 11:16:23;;;;;;;4.73;4.40;;;15.00;99.90;;;;;;6265531;22;20396;-88
2021/08/26 11:18:48;;;;;;;3.87;3.57;;;15.30;99.90;;;;;;6290867;22;20401;-90
2021/08/26 11:21:14;;;;;;;3.60;3.30;;;15.40;99.90;;;;;;6264304;22;20420;-90
2021/08/26 11:23:47;;;;;;;4.13;3.83;;;15.60;99.90;;;;;;6262446;22;20217;-90
2021/08/26 11:26:40;;;;;;;3.93;3.63;;;15.90;99.90;;;;;;6266232;22;20523;-91
2021/08/26 11:29:25;;;;;;;4.13;3.53;;;16.10;99.90;;;;;;6266701;22;20393;-89
2021/08/26 11:31:53;;;;;;;4.57;4.17;;;16.20;99.90;;;;;;6292570;22;20879;-88
2021/08/26 11:34:40;;;;;;;4.40;3.80;;;16.20;99.90;;;;;;6292231;22;20711;-89
2021/08/26 11:37:11;;;;;;;4.70;3.70;;;16.10;99.90;;;;;;6265786;22;20403;-84
2021/08/26 11:40:02;;;;;;;4.87;4.37;;;16.30;99.90;;;;;;6290375;22;20550;-87
2021/08/26 11:42:31;;;;;;;4.23;3.90;;;16.60;99.90;;;;;;6265649;22;21232;-87
2021/08/26 11:45:11;;;;;;;4.50;4.10;;;16.60;99.90;;;;;;6264593;22;20412;-85
2021/08/26 11:47:44;;;;;;;5.03;4.53;;;16.70;99.90;;;;;;6291027;22;20916;-88
2021/08/26 11:50:15;;;;;;;4.90;4.50;;;16.70;99.90;;;;;;6289608;22;20721;-86
2021/08/26 11:52:43;;;;;;;5.40;4.90;;;16.60;99.90;;;;;;6263982;22;20409;-86
2021/08/26 11:55:10;;;;;;;5.27;4.73;;;16.80;99.90;;;;;;6265067;22;20437;-86
2021/08/26 11:57:35;;;;;;;6.03;4.57;;;16.90;99.90;;;;;;6239696;22;20727;-86
2021/08/26 12:00:14;;;;;;;6.37;5.37;;;17.10;99.90;;;;;;6265744;22;20471;-85
2021/08/26 12:02:41;;;;;;;6.57;5.43;;;17.00;99.90;;;;;;6264753;22;20193;-85
2021/08/26 12:05:13;;;;;;;6.77;6.00;;;16.80;99.90;;;;;;6263618;22;20726;-86
2021/08/26 12:07:41;;;;;;;6.57;5.20;;;16.50;99.90;;;;;;6266133;22;20435;-85
2021/08/26 12:10:30;;;;;;;7.47;4.70;;;16.60;99.90;;;;;;6266402;22;20730;-87
2021/08/26 12:13:08;;;;;;;5.60;4.67;;;16.80;99.90;;;;;;6264805;22;20407;-86
2021/08/26 12:15:39;;;;;;;5.20;4.50;;;16.80;99.90;;;;;;6265907;22;20428;-85
2021/08/26 12:18:10;;;;;;;6.30;5.00;;;16.90;99.90;;;;;;6291013;22;20408;-86
2021/08/26 12:20:48;;;;;;;7.57;5.57;;;16.80;99.90;;;;;;6265243;22;20508;-87
2021/08/26 12:23:17;;;;;;;6.80;4.90;;;16.50;99.90;;;;;;6261301;22;20443;-88
2021/08/26 12:25:43;;;;;;;7.10;6.37;;;16.30;99.90;;;;;;6261902;22;20863;-88
2021/08/26 12:28:11;;;;;;;6.50;5.03;;;16.20;99.90;;;;;;6263661;22;20756;-88
2021/08/26 12:30:41;;;;;;;6.83;5.70;;;16.10;99.90;;;;;;6264977;22;20392;-89
2021/08/26 12:33:10;;;;;;;6.17;5.57;;;16.00;99.90;;;;;;6263712;22;20438;-87
2021/08/26 12:35:45;;;;;;;7.90;5.93;;;16.00;99.90;;;;;;6291160;22;20392;-87
2021/08/26 12:38:16;;;;;;;7.87;6.60;;;16.10;99.90;;;;;;6264980;22;20746;-89
2021/08/26 12:40:54;;;;;;;7.97;6.23;;;16.50;99.90;;;;;;6265578;22;20396;-89
2021/08/26 12:43:24;;;;;;;6.73;5.70;;;17.10;99.90;;;;;;6264937;22;21353;-88
2021/08/26 12:46:05;;;;;;;8.87;6.90;;;17.30;99.90;;;;;;6238257;22;20397;-89
2021/08/26 12:48:33;;;;;;;7.50;6.20;;;17.60;99.90;;;;;;6261631;22;20429;-86
2021/08/26 12:51:19;;;;;;;7.43;6.30;;;17.90;99.90;;;;;;6241335;22;20830;-88
2021/08/26 12:54:04;;;;;;;7.13;5.97;;;18.00;99.90;;;;;;6291180;22;20863;-86